sensor_id;sensor_type;location;lat;lon;timestamp;temperature;humidity
65369;HTU21D;51970;53.484;49.488;2023-01-19T00:00:34;-12.53;67.81
65369;HTU21D;51970;53.484;49.488;2023-01-19T00:03:02;-12.52;68.03
65369;HTU21D;51970;53.484;49.488;2023-01-19T00:05:29;-12.53;68.17
65369;HTU21D;51970;53.484;49.488;2023-01-19T00:07:55;-12.58;68.55
65369;HTU21D;51970;53.484;49.488;2023-01-19T00:10:21;-12.60;68.55
65369;HTU21D;51970;53.484;49.488;2023-01-19T00:12:47;-12.51;68.52
65369;HTU21D;51970;53.484;49.488;2023-01-19T00:15:13;-12.78;68.91
65369;HTU21D;51970;53.484;49.488;2023-01-19T00:17:39;-12.83;69.20
65369;HTU21D;51970;53.484;49.488;2023-01-19T00:20:06;-12.83;68.96
65369;HTU21D;51970;53.484;49.488;2023-01-19T00:22:32;-12.87;69.21
65369;HTU21D;51970;53.484;49.488;2023-01-19T00:24:58;-12.88;69.10
65369;HTU21D;51970;53.484;49.488;2023-01-19T00:27:24;-12.93;68.65
65369;HTU21D;51970;53.484;49.488;2023-01-19T00:29:50;-11.60;68.45
65369;HTU21D;51970;53.484;49.488;2023-01-19T00:32:16;-9.47;68.20
65369;HTU21D;51970;53.484;49.488;2023-01-19T00:34:44;-13.14;68.49
65369;HTU21D;51970;53.484;49.488;2023-01-19T00:37:15;-13.21;68.72
65369;HTU21D;51970;53.484;49.488;2023-01-19T00:39:41;-13.09;68.93
65369;HTU21D;51970;53.484;49.488;2023-01-19T00:42:11;-13.22;69.22
65369;HTU21D;51970;53.484;49.488;2023-01-19T00:44:56;-13.29;69.24
65369;HTU21D;51970;53.484;49.488;2023-01-19T00:47:22;-13.22;69.73
65369;HTU21D;51970;53.484;49.488;2023-01-19T00:49:48;-13.06;69.49
65369;HTU21D;51970;53.484;49.488;2023-01-19T00:52:14;-12.92;69.08
65369;HTU21D;51970;53.484;49.488;2023-01-19T00:54:40;-12.88;68.90
65369;HTU21D;51970;53.484;49.488;2023-01-19T00:57:06;-13.09;68.85
65369;HTU21D;51970;53.484;49.488;2023-01-19T00:59:32;-13.18;68.61
65369;HTU21D;51970;53.484;49.488;2023-01-19T01:01:58;-13.41;68.84
65369;HTU21D;51970;53.484;49.488;2023-01-19T01:04:25;-13.51;69.29
65369;HTU21D;51970;53.484;49.488;2023-01-19T01:06:51;-13.59;69.33
65369;HTU21D;51970;53.484;49.488;2023-01-19T01:09:17;-13.66;69.40
65369;HTU21D;51970;53.484;49.488;2023-01-19T01:11:43;-13.75;69.70
65369;HTU21D;51970;53.484;49.488;2023-01-19T01:14:10;-13.56;70.06
65369;HTU21D;51970;53.484;49.488;2023-01-19T01:16:40;-13.74;70.13
65369;HTU21D;51970;53.484;49.488;2023-01-19T01:19:06;-13.63;70.50
65369;HTU21D;51970;53.484;49.488;2023-01-19T01:21:32;-13.72;70.34
65369;HTU21D;51970;53.484;49.488;2023-01-19T01:23:59;-13.78;70.13
65369;HTU21D;51970;53.484;49.488;2023-01-19T01:26:25;-13.77;70.08
65369;HTU21D;51970;53.484;49.488;2023-01-19T01:28:51;-13.83;70.16
65369;HTU21D;51970;53.484;49.488;2023-01-19T01:31:17;-13.66;70.11
65369;HTU21D;51970;53.484;49.488;2023-01-19T01:33:43;-13.82;69.53
65369;HTU21D;51970;53.484;49.488;2023-01-19T01:36:10;-13.95;69.49
65369;HTU21D;51970;53.484;49.488;2023-01-19T01:38:40;-13.89;69.35
65369;HTU21D;51970;53.484;49.488;2023-01-19T01:41:06;-13.59;69.09
65369;HTU21D;51970;53.484;49.488;2023-01-19T01:43:46;-13.91;69.16
65369;HTU21D;51970;53.484;49.488;2023-01-19T01:46:14;-13.91;69.04
65369;HTU21D;51970;53.484;49.488;2023-01-19T01:48:48;-13.92;69.12
65369;HTU21D;51970;53.484;49.488;2023-01-19T01:51:37;-13.83;69.18
65369;HTU21D;51970;53.484;49.488;2023-01-19T01:54:07;-13.75;68.75
65369;HTU21D;51970;53.484;49.488;2023-01-19T01:56:37;-13.86;69.35
65369;HTU21D;51970;53.484;49.488;2023-01-19T01:59:08;-13.58;69.43
65369;HTU21D;51970;53.484;49.488;2023-01-19T02:01:36;-13.91;69.57
65369;HTU21D;51970;53.484;49.488;2023-01-19T02:04:20;-14.04;69.63
65369;HTU21D;51970;53.484;49.488;2023-01-19T02:06:47;-13.98;69.58
65369;HTU21D;51970;53.484;49.488;2023-01-19T02:09:35;-9.46;69.64
65369;HTU21D;51970;53.484;49.488;2023-01-19T02:12:21;-14.00;69.87
65369;HTU21D;51970;53.484;49.488;2023-01-19T02:15:17;-13.99;70.04
65369;HTU21D;51970;53.484;49.488;2023-01-19T02:17:45;-13.97;69.93
65369;HTU21D;51970;53.484;49.488;2023-01-19T02:20:12;-13.68;69.99
65369;HTU21D;51970;53.484;49.488;2023-01-19T02:22:48;-13.87;69.68
65369;HTU21D;51970;53.484;49.488;2023-01-19T02:25:16;-13.61;69.36
65369;HTU21D;51970;53.484;49.488;2023-01-19T02:27:45;-13.73;69.61
65369;HTU21D;51970;53.484;49.488;2023-01-19T02:30:12;-10.44;69.39
65369;HTU21D;51970;53.484;49.488;2023-01-19T02:32:39;-13.38;69.38
65369;HTU21D;51970;53.484;49.488;2023-01-19T02:35:05;-13.21;69.35
65369;HTU21D;51970;53.484;49.488;2023-01-19T02:37:33;-13.12;69.29
65369;HTU21D;51970;53.484;49.488;2023-01-19T02:40:04;-13.08;68.30
65369;HTU21D;51970;53.484;49.488;2023-01-19T02:42:40;-12.95;68.12
65369;HTU21D;51970;53.484;49.488;2023-01-19T02:45:09;-12.98;67.89
65369;HTU21D;51970;53.484;49.488;2023-01-19T02:47:46;-12.88;67.98
65369;HTU21D;51970;53.484;49.488;2023-01-19T02:50:36;-12.96;67.59
65369;HTU21D;51970;53.484;49.488;2023-01-19T02:53:30;-13.24;67.30
65369;HTU21D;51970;53.484;49.488;2023-01-19T03:10:03;-13.36;68.86
65369;HTU21D;51970;53.484;49.488;2023-01-19T03:12:46;-13.26;69.58
65369;HTU21D;51970;53.484;49.488;2023-01-19T03:15:27;-13.02;69.26
65369;HTU21D;51970;53.484;49.488;2023-01-19T03:17:55;-12.86;69.23
65369;HTU21D;51970;53.484;49.488;2023-01-19T03:20:23;-12.70;68.80
65369;HTU21D;51970;53.484;49.488;2023-01-19T03:23:04;-12.63;68.94
65369;HTU21D;51970;53.484;49.488;2023-01-19T03:25:34;-12.62;69.86
65369;HTU21D;51970;53.484;49.488;2023-01-19T03:28:02;-12.56;70.30
65369;HTU21D;51970;53.484;49.488;2023-01-19T03:30:37;-12.48;70.76
65369;HTU21D;51970;53.484;49.488;2023-01-19T03:33:08;-12.37;71.10
65369;HTU21D;51970;53.484;49.488;2023-01-19T03:35:38;-12.22;71.99
65369;HTU21D;51970;53.484;49.488;2023-01-19T03:38:12;-12.05;71.84
65369;HTU21D;51970;53.484;49.488;2023-01-19T03:40:40;-11.96;71.54
65369;HTU21D;51970;53.484;49.488;2023-01-19T03:43:07;-11.73;71.64
65369;HTU21D;51970;53.484;49.488;2023-01-19T03:45:36;-11.83;71.36
65369;HTU21D;51970;53.484;49.488;2023-01-19T03:48:04;-11.48;71.30
65369;HTU21D;51970;53.484;49.488;2023-01-19T03:50:30;-11.86;71.84
65369;HTU21D;51970;53.484;49.488;2023-01-19T03:55:32;-11.79;71.39
65369;HTU21D;51970;53.484;49.488;2023-01-19T03:57:58;-11.59;71.40
65369;HTU21D;51970;53.484;49.488;2023-01-19T04:00:24;-11.62;71.26
65369;HTU21D;51970;53.484;49.488;2023-01-19T04:02:51;-11.86;71.37
65369;HTU21D;51970;53.484;49.488;2023-01-19T04:05:17;-11.83;71.54
65369;HTU21D;51970;53.484;49.488;2023-01-19T04:07:43;-10.93;71.06
65369;HTU21D;51970;53.484;49.488;2023-01-19T04:10:09;-11.54;70.74
65369;HTU21D;51970;53.484;49.488;2023-01-19T04:12:38;-11.74;70.70
65369;HTU21D;51970;53.484;49.488;2023-01-19T04:15:07;-9.69;70.77
65369;HTU21D;51970;53.484;49.488;2023-01-19T04:17:33;-11.79;70.81
65369;HTU21D;51970;53.484;49.488;2023-01-19T04:19:59;-11.63;70.80
65369;HTU21D;51970;53.484;49.488;2023-01-19T04:22:25;-11.76;70.77
65369;HTU21D;51970;53.484;49.488;2023-01-19T04:24:51;-11.70;70.41
65369;HTU21D;51970;53.484;49.488;2023-01-19T04:27:17;-11.67;70.23
65369;HTU21D;51970;53.484;49.488;2023-01-19T04:29:43;-11.62;70.35
65369;HTU21D;51970;53.484;49.488;2023-01-19T04:32:12;-11.70;70.45
65369;HTU21D;51970;53.484;49.488;2023-01-19T04:34:38;-11.56;70.40
65369;HTU21D;51970;53.484;49.488;2023-01-19T04:37:05;-8.49;69.95
65369;HTU21D;51970;53.484;49.488;2023-01-19T04:39:33;-11.84;69.42
65369;HTU21D;51970;53.484;49.488;2023-01-19T04:41:59;-11.76;69.49
65369;HTU21D;51970;53.484;49.488;2023-01-19T04:44:26;-11.71;69.27
65369;HTU21D;51970;53.484;49.488;2023-01-19T04:46:53;-11.90;69.58
65369;HTU21D;51970;53.484;49.488;2023-01-19T04:49:19;-11.98;69.78
65369;HTU21D;51970;53.484;49.488;2023-01-19T04:51:46;-11.69;70.04
65369;HTU21D;51970;53.484;49.488;2023-01-19T04:54:12;-11.89;69.90
65369;HTU21D;51970;53.484;49.488;2023-01-19T04:56:38;-11.89;69.37
65369;HTU21D;51970;53.484;49.488;2023-01-19T04:59:05;-11.90;69.42
65369;HTU21D;51970;53.484;49.488;2023-01-19T05:01:31;-11.63;69.12
65369;HTU21D;51970;53.484;49.488;2023-01-19T05:03:58;-11.70;69.43
65369;HTU21D;51970;53.484;49.488;2023-01-19T05:06:29;-11.73;70.09
65369;HTU21D;51970;53.484;49.488;2023-01-19T05:08:55;-11.41;69.80
65369;HTU21D;51970;53.484;49.488;2023-01-19T05:11:21;-9.53;69.32
65369;HTU21D;51970;53.484;49.488;2023-01-19T05:13:47;-8.73;69.00
65369;HTU21D;51970;53.484;49.488;2023-01-19T05:16:16;-11.49;68.81
65369;HTU21D;51970;53.484;49.488;2023-01-19T05:18:42;-8.26;68.62
65369;HTU21D;51970;53.484;49.488;2023-01-19T05:21:08;-11.59;68.84
65369;HTU21D;51970;53.484;49.488;2023-01-19T05:23:37;-11.59;68.66
65369;HTU21D;51970;53.484;49.488;2023-01-19T05:26:03;-11.55;68.75
65369;HTU21D;51970;53.484;49.488;2023-01-19T05:28:31;-11.36;68.49
65369;HTU21D;51970;53.484;49.488;2023-01-19T05:30:57;-11.41;68.64
65369;HTU21D;51970;53.484;49.488;2023-01-19T05:33:24;-11.25;68.61
65369;HTU21D;51970;53.484;49.488;2023-01-19T05:35:51;-10.78;68.13
65369;HTU21D;51970;53.484;49.488;2023-01-19T05:38:18;-10.76;67.81
65369;HTU21D;51970;53.484;49.488;2023-01-19T05:40:45;-10.88;67.55
65369;HTU21D;51970;53.484;49.488;2023-01-19T05:43:12;-10.65;66.94
65369;HTU21D;51970;53.484;49.488;2023-01-19T05:45:39;-10.62;66.89
65369;HTU21D;51970;53.484;49.488;2023-01-19T05:48:06;-10.64;66.97
65369;HTU21D;51970;53.484;49.488;2023-01-19T05:50:33;-10.25;66.72
65369;HTU21D;51970;53.484;49.488;2023-01-19T05:53:02;-10.34;66.30
65369;HTU21D;51970;53.484;49.488;2023-01-19T05:55:28;-10.40;65.74
65369;HTU21D;51970;53.484;49.488;2023-01-19T05:57:54;-10.29;65.60
65369;HTU21D;51970;53.484;49.488;2023-01-19T06:00:20;-10.35;65.94
65369;HTU21D;51970;53.484;49.488;2023-01-19T06:02:46;-10.21;65.53
65369;HTU21D;51970;53.484;49.488;2023-01-19T06:05:14;-10.06;64.81
65369;HTU21D;51970;53.484;49.488;2023-01-19T06:07:40;-9.86;64.14
65369;HTU21D;51970;53.484;49.488;2023-01-19T06:10:07;-9.60;62.89
65369;HTU21D;51970;53.484;49.488;2023-01-19T06:12:34;-9.42;62.80
65369;HTU21D;51970;53.484;49.488;2023-01-19T06:15:00;-9.46;62.12
65369;HTU21D;51970;53.484;49.488;2023-01-19T06:17:26;-6.03;62.21
65369;HTU21D;51970;53.484;49.488;2023-01-19T06:19:52;-9.25;61.86
65369;HTU21D;51970;53.484;49.488;2023-01-19T06:22:19;-5.43;61.80
65369;HTU21D;51970;53.484;49.488;2023-01-19T06:24:45;-8.86;62.15
65369;HTU21D;51970;53.484;49.488;2023-01-19T06:27:11;-8.60;60.63
65369;HTU21D;51970;53.484;49.488;2023-01-19T06:29:38;-8.37;60.04
65369;HTU21D;51970;53.484;49.488;2023-01-19T06:32:05;-8.40;59.27
65369;HTU21D;51970;53.484;49.488;2023-01-19T06:34:31;-8.30;59.26
65369;HTU21D;51970;53.484;49.488;2023-01-19T06:36:57;-8.21;58.90
65369;HTU21D;51970;53.484;49.488;2023-01-19T06:39:23;-8.04;58.36
65369;HTU21D;51970;53.484;49.488;2023-01-19T06:41:52;-7.93;58.33
65369;HTU21D;51970;53.484;49.488;2023-01-19T06:44:18;-7.84;58.26
65369;HTU21D;51970;53.484;49.488;2023-01-19T06:46:44;-7.80;58.39
65369;HTU21D;51970;53.484;49.488;2023-01-19T06:49:10;-7.86;58.32
65369;HTU21D;51970;53.484;49.488;2023-01-19T06:51:36;-7.81;58.05
65369;HTU21D;51970;53.484;49.488;2023-01-19T06:54:02;-7.60;57.93
65369;HTU21D;51970;53.484;49.488;2023-01-19T06:56:28;-5.74;56.57
65369;HTU21D;51970;53.484;49.488;2023-01-19T06:58:54;-7.50;56.53
65369;HTU21D;51970;53.484;49.488;2023-01-19T07:01:20;-7.36;56.36
65369;HTU21D;51970;53.484;49.488;2023-01-19T07:03:46;-7.27;56.30
65369;HTU21D;51970;53.484;49.488;2023-01-19T07:06:12;-7.25;56.00
65369;HTU21D;51970;53.484;49.488;2023-01-19T07:08:38;-7.10;55.93
65369;HTU21D;51970;53.484;49.488;2023-01-19T07:11:06;-6.32;55.00
65369;HTU21D;51970;53.484;49.488;2023-01-19T07:13:34;-6.85;54.87
65369;HTU21D;51970;53.484;49.488;2023-01-19T07:16:06;-6.74;54.17
65369;HTU21D;51970;53.484;49.488;2023-01-19T07:18:32;-7.00;54.00
65369;HTU21D;51970;53.484;49.488;2023-01-19T07:20:59;-7.00;54.16
65369;HTU21D;51970;53.484;49.488;2023-01-19T07:23:26;-7.07;54.06
65369;HTU21D;51970;53.484;49.488;2023-01-19T07:25:56;-7.02;54.21
65369;HTU21D;51970;53.484;49.488;2023-01-19T07:28:23;-6.96;54.05
65369;HTU21D;51970;53.484;49.488;2023-01-19T07:30:53;-6.93;53.81
65369;HTU21D;51970;53.484;49.488;2023-01-19T07:33:22;-6.86;53.87
65369;HTU21D;51970;53.484;49.488;2023-01-19T07:35:50;-6.81;53.49
65369;HTU21D;51970;53.484;49.488;2023-01-19T07:38:19;-6.83;53.42
65369;HTU21D;51970;53.484;49.488;2023-01-19T07:40:46;-6.72;53.50
65369;HTU21D;51970;53.484;49.488;2023-01-19T07:43:12;-6.71;53.43
65369;HTU21D;51970;53.484;49.488;2023-01-19T07:45:39;-6.65;53.31
65369;HTU21D;51970;53.484;49.488;2023-01-19T07:48:06;-6.63;53.07
65369;HTU21D;51970;53.484;49.488;2023-01-19T07:50:32;-6.52;52.90
65369;HTU21D;51970;53.484;49.488;2023-01-19T07:53:07;-6.57;52.81
65369;HTU21D;51970;53.484;49.488;2023-01-19T07:55:34;-6.56;52.90
65369;HTU21D;51970;53.484;49.488;2023-01-19T07:58:00;-6.45;52.58
65369;HTU21D;51970;53.484;49.488;2023-01-19T08:00:28;-6.44;52.15
65369;HTU21D;51970;53.484;49.488;2023-01-19T08:02:58;-6.47;52.20
65369;HTU21D;51970;53.484;49.488;2023-01-19T08:05:25;-6.41;52.24
65369;HTU21D;51970;53.484;49.488;2023-01-19T08:07:55;-6.30;52.28
65369;HTU21D;51970;53.484;49.488;2023-01-19T08:10:26;-6.33;51.84
65369;HTU21D;51970;53.484;49.488;2023-01-19T08:12:53;-6.11;51.72
65369;HTU21D;51970;53.484;49.488;2023-01-19T08:15:20;-6.11;51.77
65369;HTU21D;51970;53.484;49.488;2023-01-19T08:18:01;-6.07;51.49
65369;HTU21D;51970;53.484;49.488;2023-01-19T08:20:30;-5.93;51.48
65369;HTU21D;51970;53.484;49.488;2023-01-19T08:22:57;-5.77;50.91
65369;HTU21D;51970;53.484;49.488;2023-01-19T08:25:38;-5.76;50.75
65369;HTU21D;51970;53.484;49.488;2023-01-19T08:28:06;-5.63;50.87
65369;HTU21D;51970;53.484;49.488;2023-01-19T08:30:35;-5.49;49.79
65369;HTU21D;51970;53.484;49.488;2023-01-19T08:33:03;-5.44;49.94
65369;HTU21D;51970;53.484;49.488;2023-01-19T08:35:35;-5.40;49.75
65369;HTU21D;51970;53.484;49.488;2023-01-19T08:38:05;-5.39;49.67
65369;HTU21D;51970;53.484;49.488;2023-01-19T08:40:34;-5.26;49.99
65369;HTU21D;51970;53.484;49.488;2023-01-19T08:43:10;-5.19;49.78
65369;HTU21D;51970;53.484;49.488;2023-01-19T08:45:37;-5.27;49.83
65369;HTU21D;51970;53.484;49.488;2023-01-19T08:48:06;-5.29;49.59
65369;HTU21D;51970;53.484;49.488;2023-01-19T08:50:33;-5.22;49.92
65369;HTU21D;51970;53.484;49.488;2023-01-19T08:53:01;-5.07;50.24
65369;HTU21D;51970;53.484;49.488;2023-01-19T08:55:35;-5.08;49.16
65369;HTU21D;51970;53.484;49.488;2023-01-19T08:58:02;-5.10;48.96
65369;HTU21D;51970;53.484;49.488;2023-01-19T09:00:30;-5.01;48.78
65369;HTU21D;51970;53.484;49.488;2023-01-19T09:02:58;-4.98;48.62
65369;HTU21D;51970;53.484;49.488;2023-01-19T09:05:26;-4.96;48.56
65369;HTU21D;51970;53.484;49.488;2023-01-19T09:07:52;-4.93;48.91
65369;HTU21D;51970;53.484;49.488;2023-01-19T09:10:21;-4.88;48.76
65369;HTU21D;51970;53.484;49.488;2023-01-19T09:12:47;-4.84;49.28
65369;HTU21D;51970;53.484;49.488;2023-01-19T09:15:15;-4.76;49.56
65369;HTU21D;51970;53.484;49.488;2023-01-19T09:17:41;-4.71;48.99
65369;HTU21D;51970;53.484;49.488;2023-01-19T09:20:07;-4.72;48.86
65369;HTU21D;51970;53.484;49.488;2023-01-19T09:22:34;-4.68;49.11
65369;HTU21D;51970;53.484;49.488;2023-01-19T09:25:00;-4.56;48.45
65369;HTU21D;51970;53.484;49.488;2023-01-19T09:27:26;-4.64;48.91
65369;HTU21D;51970;53.484;49.488;2023-01-19T09:29:52;-4.55;48.67
65369;HTU21D;51970;53.484;49.488;2023-01-19T09:32:27;-4.49;48.28
65369;HTU21D;51970;53.484;49.488;2023-01-19T09:34:56;-4.46;47.85
65369;HTU21D;51970;53.484;49.488;2023-01-19T09:37:23;-4.45;48.08
65369;HTU21D;51970;53.484;49.488;2023-01-19T09:39:52;-4.23;47.08
65369;HTU21D;51970;53.484;49.488;2023-01-19T09:42:32;-4.11;46.54
65369;HTU21D;51970;53.484;49.488;2023-01-19T09:45:03;-4.16;46.44
65369;HTU21D;51970;53.484;49.488;2023-01-19T09:47:31;-4.19;47.29
65369;HTU21D;51970;53.484;49.488;2023-01-19T09:50:03;-4.24;47.70
65369;HTU21D;51970;53.484;49.488;2023-01-19T09:52:32;-4.27;47.81
65369;HTU21D;51970;53.484;49.488;2023-01-19T09:54:59;-4.20;47.50
65369;HTU21D;51970;53.484;49.488;2023-01-19T09:57:26;-4.14;47.10
65369;HTU21D;51970;53.484;49.488;2023-01-19T09:59:52;-4.10;47.20
65369;HTU21D;51970;53.484;49.488;2023-01-19T10:02:43;-4.01;47.18
65369;HTU21D;51970;53.484;49.488;2023-01-19T10:10:51;-4.02;47.22
65369;HTU21D;51970;53.484;49.488;2023-01-19T10:18:44;-3.87;47.12
65369;HTU21D;51970;53.484;49.488;2023-01-19T10:21:28;-3.58;46.28
65369;HTU21D;51970;53.484;49.488;2023-01-19T10:24:03;-3.50;45.35
65369;HTU21D;51970;53.484;49.488;2023-01-19T10:26:32;-3.41;44.71
65369;HTU21D;51970;53.484;49.488;2023-01-19T10:31:50;-3.54;45.49
65369;HTU21D;51970;53.484;49.488;2023-01-19T10:34:16;-3.65;44.82
65369;HTU21D;51970;53.484;49.488;2023-01-19T10:36:47;-3.61;44.85
65369;HTU21D;51970;53.484;49.488;2023-01-19T10:39:17;-3.53;44.02
65369;HTU21D;51970;53.484;49.488;2023-01-19T10:41:48;-3.57;44.79
65369;HTU21D;51970;53.484;49.488;2023-01-19T10:44:35;-3.62;44.50
65369;HTU21D;51970;53.484;49.488;2023-01-19T10:47:04;-3.54;44.67
65369;HTU21D;51970;53.484;49.488;2023-01-19T10:52:01;-3.63;42.98
65369;HTU21D;51970;53.484;49.488;2023-01-19T10:54:29;-3.58;43.32
65369;HTU21D;51970;53.484;49.488;2023-01-19T10:57:01;-3.50;42.90
65369;HTU21D;51970;53.484;49.488;2023-01-19T10:59:35;-3.55;42.06
65369;HTU21D;51970;53.484;49.488;2023-01-19T11:04:46;-3.60;42.94
65369;HTU21D;51970;53.484;49.488;2023-01-19T11:07:18;-3.57;42.62
65369;HTU21D;51970;53.484;49.488;2023-01-19T11:09:46;-3.53;42.12
65369;HTU21D;51970;53.484;49.488;2023-01-19T11:12:22;-3.57;41.88
65369;HTU21D;51970;53.484;49.488;2023-01-19T11:14:50;-3.62;42.02
65369;HTU21D;51970;53.484;49.488;2023-01-19T11:17:23;-3.67;41.63
65369;HTU21D;51970;53.484;49.488;2023-01-19T11:20:00;-3.69;42.01
65369;HTU21D;51970;53.484;49.488;2023-01-19T11:22:31;-3.78;42.35
65369;HTU21D;51970;53.484;49.488;2023-01-19T11:24:59;-3.77;42.10
65369;HTU21D;51970;53.484;49.488;2023-01-19T11:27:26;-3.74;42.10
65369;HTU21D;51970;53.484;49.488;2023-01-19T11:30:00;-3.72;42.71
65369;HTU21D;51970;53.484;49.488;2023-01-19T11:32:30;-3.69;42.66
65369;HTU21D;51970;53.484;49.488;2023-01-19T11:34:58;-3.66;42.69
65369;HTU21D;51970;53.484;49.488;2023-01-19T11:37:30;-3.64;42.76
65369;HTU21D;51970;53.484;49.488;2023-01-19T11:39:57;-3.66;42.58
65369;HTU21D;51970;53.484;49.488;2023-01-19T11:42:25;-3.68;42.87
65369;HTU21D;51970;53.484;49.488;2023-01-19T11:47:40;-3.68;42.36
65369;HTU21D;51970;53.484;49.488;2023-01-19T11:56:00;-3.93;42.64
65369;HTU21D;51970;53.484;49.488;2023-01-19T11:58:29;-4.07;43.84
65369;HTU21D;51970;53.484;49.488;2023-01-19T12:01:08;-4.17;43.50
65369;HTU21D;51970;53.484;49.488;2023-01-19T12:03:44;-4.20;43.48
65369;HTU21D;51970;53.484;49.488;2023-01-19T12:06:24;-4.27;43.30
65369;HTU21D;51970;53.484;49.488;2023-01-19T12:08:59;-4.28;43.60
65369;HTU21D;51970;53.484;49.488;2023-01-19T12:11:48;-4.32;43.22
65369;HTU21D;51970;53.484;49.488;2023-01-19T12:14:24;-4.41;43.68
65369;HTU21D;51970;53.484;49.488;2023-01-19T12:16:54;-4.44;43.65
65369;HTU21D;51970;53.484;49.488;2023-01-19T12:19:39;-4.52;43.49
65369;HTU21D;51970;53.484;49.488;2023-01-19T12:22:14;-4.52;43.66
65369;HTU21D;51970;53.484;49.488;2023-01-19T12:24:47;-4.54;43.51
65369;HTU21D;51970;53.484;49.488;2023-01-19T12:27:39;-4.48;43.51
65369;HTU21D;51970;53.484;49.488;2023-01-19T12:30:25;-4.46;43.81
65369;HTU21D;51970;53.484;49.488;2023-01-19T12:33:30;-4.45;43.62
65369;HTU21D;51970;53.484;49.488;2023-01-19T12:38:46;-4.53;43.48
65369;HTU21D;51970;53.484;49.488;2023-01-19T12:43:45;-4.55;43.57
65369;HTU21D;51970;53.484;49.488;2023-01-19T12:46:29;-4.59;43.20
65369;HTU21D;51970;53.484;49.488;2023-01-19T12:51:34;-4.55;42.26
65369;HTU21D;51970;53.484;49.488;2023-01-19T12:54:03;-4.37;41.08
65369;HTU21D;51970;53.484;49.488;2023-01-19T12:56:33;-4.31;41.13
65369;HTU21D;51970;53.484;49.488;2023-01-19T12:59:01;-4.31;40.55
65369;HTU21D;51970;53.484;49.488;2023-01-19T13:01:28;-4.39;41.39
65369;HTU21D;51970;53.484;49.488;2023-01-19T13:09:29;-4.64;42.62
65369;HTU21D;51970;53.484;49.488;2023-01-19T13:12:19;-4.78;43.16
65369;HTU21D;51970;53.484;49.488;2023-01-19T13:14:46;-4.83;43.02
65369;HTU21D;51970;53.484;49.488;2023-01-19T13:17:49;-4.98;44.07
65369;HTU21D;51970;53.484;49.488;2023-01-19T13:22:51;-5.25;44.38
65369;HTU21D;51970;53.484;49.488;2023-01-19T13:25:31;-5.39;45.06
65369;HTU21D;51970;53.484;49.488;2023-01-19T13:28:03;-5.44;44.96
65369;HTU21D;51970;53.484;49.488;2023-01-19T13:30:51;-5.54;45.29
65369;HTU21D;51970;53.484;49.488;2023-01-19T13:33:22;-5.54;44.53
65369;HTU21D;51970;53.484;49.488;2023-01-19T13:35:56;-5.63;45.03
65369;HTU21D;51970;53.484;49.488;2023-01-19T13:38:26;-5.63;45.13
65369;HTU21D;51970;53.484;49.488;2023-01-19T13:40:54;-5.65;45.21
65369;HTU21D;51970;53.484;49.488;2023-01-19T13:43:26;-5.60;44.87
65369;HTU21D;51970;53.484;49.488;2023-01-19T13:45:54;-5.76;44.12
65369;HTU21D;51970;53.484;49.488;2023-01-19T13:48:22;-5.83;43.92
65369;HTU21D;51970;53.484;49.488;2023-01-19T13:50:57;-5.90;44.25
65369;HTU21D;51970;53.484;49.488;2023-01-19T13:53:24;-5.78;44.87
65369;HTU21D;51970;53.484;49.488;2023-01-19T13:56:14;-5.84;44.32
65369;HTU21D;51970;53.484;49.488;2023-01-19T13:58:41;-5.84;44.74
65369;HTU21D;51970;53.484;49.488;2023-01-19T14:01:19;-5.96;45.70
65369;HTU21D;51970;53.484;49.488;2023-01-19T14:03:46;-6.03;46.04
65369;HTU21D;51970;53.484;49.488;2023-01-19T14:06:43;-6.11;45.90
65369;HTU21D;51970;53.484;49.488;2023-01-19T14:09:17;-6.03;46.09
65369;HTU21D;51970;53.484;49.488;2023-01-19T14:12:12;-5.96;44.90
65369;HTU21D;51970;53.484;49.488;2023-01-19T14:14:40;-5.83;43.71
65369;HTU21D;51970;53.484;49.488;2023-01-19T14:17:36;-5.58;41.71
65369;HTU21D;51970;53.484;49.488;2023-01-19T14:20:02;-5.50;41.13
65369;HTU21D;51970;53.484;49.488;2023-01-19T14:22:43;-5.38;41.00
65369;HTU21D;51970;53.484;49.488;2023-01-19T14:30:58;-5.71;41.05
65369;HTU21D;51970;53.484;49.488;2023-01-19T14:33:42;-5.17;41.84
65369;HTU21D;51970;53.484;49.488;2023-01-19T14:38:59;-5.90;42.19
65369;HTU21D;51970;53.484;49.488;2023-01-19T14:41:46;-5.97;43.76
65369;HTU21D;51970;53.484;49.488;2023-01-19T14:44:37;-6.14;43.45
65369;HTU21D;51970;53.484;49.488;2023-01-19T14:47:05;-6.09;42.28
65369;HTU21D;51970;53.484;49.488;2023-01-19T14:49:38;-6.04;42.18
65369;HTU21D;51970;53.484;49.488;2023-01-19T14:52:23;-6.13;42.41
65369;HTU21D;51970;53.484;49.488;2023-01-19T14:54:52;-6.26;42.46
65369;HTU21D;51970;53.484;49.488;2023-01-19T14:57:19;-6.32;43.05
65369;HTU21D;51970;53.484;49.488;2023-01-19T14:59:45;-6.21;41.71
65369;HTU21D;51970;53.484;49.488;2023-01-19T15:02:15;-6.11;40.51
65369;HTU21D;51970;53.484;49.488;2023-01-19T15:04:44;-6.04;41.14
65369;HTU21D;51970;53.484;49.488;2023-01-19T15:07:22;-5.86;41.70
65369;HTU21D;51970;53.484;49.488;2023-01-19T15:09:50;-5.73;41.57
65369;HTU21D;51970;53.484;49.488;2023-01-19T15:12:17;-5.59;41.75
65369;HTU21D;51970;53.484;49.488;2023-01-19T15:14:44;-5.60;41.84
65369;HTU21D;51970;53.484;49.488;2023-01-19T15:17:16;-5.70;43.01
65369;HTU21D;51970;53.484;49.488;2023-01-19T15:19:55;-5.72;43.16
65369;HTU21D;51970;53.484;49.488;2023-01-19T15:22:24;-5.86;43.87
65369;HTU21D;51970;53.484;49.488;2023-01-19T15:24:51;-5.88;43.98
65369;HTU21D;51970;53.484;49.488;2023-01-19T15:27:22;-5.92;44.35
65369;HTU21D;51970;53.484;49.488;2023-01-19T15:29:48;-5.93;44.70
65369;HTU21D;51970;53.484;49.488;2023-01-19T15:32:14;-5.97;45.15
65369;HTU21D;51970;53.484;49.488;2023-01-19T15:34:42;-5.94;44.67
65369;HTU21D;51970;53.484;49.488;2023-01-19T15:37:09;-5.93;45.32
65369;HTU21D;51970;53.484;49.488;2023-01-19T15:39:35;-5.97;45.50
65369;HTU21D;51970;53.484;49.488;2023-01-19T15:42:14;-5.83;44.77
65369;HTU21D;51970;53.484;49.488;2023-01-19T15:44:40;-5.79;44.54
65369;HTU21D;51970;53.484;49.488;2023-01-19T15:47:09;-5.81;44.96
65369;HTU21D;51970;53.484;49.488;2023-01-19T15:49:35;-5.90;45.24
65369;HTU21D;51970;53.484;49.488;2023-01-19T15:52:02;-5.92;45.85
65369;HTU21D;51970;53.484;49.488;2023-01-19T15:54:28;-6.05;46.73
65369;HTU21D;51970;53.484;49.488;2023-01-19T15:56:54;-6.11;48.12
65369;HTU21D;51970;53.484;49.488;2023-01-19T15:59:20;-6.15;48.29
65369;HTU21D;51970;53.484;49.488;2023-01-19T16:01:46;-5.65;48.94
65369;HTU21D;51970;53.484;49.488;2023-01-19T16:04:12;-6.18;49.15
65369;HTU21D;51970;53.484;49.488;2023-01-19T16:06:41;-6.21;49.33
65369;HTU21D;51970;53.484;49.488;2023-01-19T16:09:10;-6.19;49.84
65369;HTU21D;51970;53.484;49.488;2023-01-19T16:11:41;-6.19;50.41
65369;HTU21D;51970;53.484;49.488;2023-01-19T16:14:07;-6.13;50.43
65369;HTU21D;51970;53.484;49.488;2023-01-19T16:16:33;-6.02;51.17
65369;HTU21D;51970;53.484;49.488;2023-01-19T16:19:02;-5.90;51.17
65369;HTU21D;51970;53.484;49.488;2023-01-19T16:21:29;-5.98;51.49
65369;HTU21D;51970;53.484;49.488;2023-01-19T16:23:55;-5.98;51.64